createdAt,value
2018-02-07T00:00:38.662Z,802.39
2018-02-07T00:01:38.685Z,802.36
2018-02-07T00:02:38.672Z,802.35
2018-02-07T00:03:38.721Z,802.35
2018-02-07T00:04:38.678Z,802.33
2018-02-07T00:05:38.686Z,802.33
2018-02-07T00:06:38.686Z,802.31
2018-02-07T00:07:38.695Z,802.32
2018-02-07T00:08:38.692Z,802.35
2018-02-07T00:09:38.714Z,802.30
2018-02-07T00:10:38.713Z,802.33
2018-02-07T00:11:38.712Z,802.27
2018-02-07T00:12:38.714Z,802.28
2018-02-07T00:13:38.714Z,802.27
2018-02-07T00:14:38.720Z,802.24
2018-02-07T00:15:38.725Z,802.27
2018-02-07T00:16:38.725Z,802.22
2018-02-07T00:17:38.734Z,802.22
2018-02-07T00:18:38.738Z,802.26
2018-02-07T00:19:38.735Z,802.22
2018-02-07T00:20:38.749Z,802.26
2018-02-07T00:21:38.748Z,802.27
2018-02-07T00:22:38.745Z,802.27
2018-02-07T00:23:38.750Z,802.23
2018-02-07T00:24:38.784Z,802.26
2018-02-07T00:25:38.900Z,802.24
2018-02-07T00:26:38.774Z,802.26
2018-02-07T00:27:38.770Z,802.28
2018-02-07T00:28:38.774Z,802.27
2018-02-07T00:29:38.782Z,802.27
2018-02-07T00:30:38.781Z,802.26
2018-02-07T00:31:38.786Z,802.27
2018-02-07T00:32:38.791Z,802.26
2018-02-07T00:33:38.794Z,802.21
2018-02-07T00:34:38.799Z,802.23
2018-02-07T00:35:38.796Z,802.18
2018-02-07T00:36:38.807Z,802.18
2018-02-07T00:37:38.806Z,802.18
2018-02-07T00:38:38.810Z,802.16
2018-02-07T00:39:38.809Z,802.18
2018-02-07T00:40:38.814Z,802.14
2018-02-07T00:41:38.819Z,802.13
2018-02-07T00:42:38.825Z,802.16
2018-02-07T00:43:38.825Z,802.14
2018-02-07T00:44:38.830Z,802.13
2018-02-07T00:45:38.838Z,802.09
2018-02-07T00:46:38.838Z,802.13
2018-02-07T00:47:38.844Z,802.14
2018-02-07T00:48:38.843Z,802.14
2018-02-07T00:49:38.847Z,802.12
2018-02-07T00:50:38.855Z,802.14
2018-02-07T00:51:38.857Z,802.16
2018-02-07T00:52:38.863Z,802.12
2018-02-07T00:53:38.871Z,802.13
2018-02-07T00:54:38.868Z,802.16
2018-02-07T00:55:38.867Z,802.11
2018-02-07T00:56:38.872Z,802.12
2018-02-07T00:57:38.880Z,802.10
2018-02-07T00:58:38.883Z,802.07
2018-02-07T00:59:38.894Z,802.07
2018-02-07T01:00:38.892Z,802.09
2018-02-07T01:01:38.889Z,802.08
2018-02-07T01:02:38.898Z,802.06
2018-02-07T01:03:38.895Z,802.08
2018-02-07T01:04:38.901Z,802.07
2018-02-07T01:05:38.909Z,802.05
2018-02-07T01:06:38.905Z,802.01
2018-02-07T01:07:38.914Z,802.05
2018-02-07T01:08:38.916Z,802.07
2018-02-07T01:09:38.925Z,802.04
2018-02-07T01:10:38.919Z,802.05
2018-02-07T01:11:38.927Z,802.05
2018-02-07T01:12:38.926Z,802.05
2018-02-07T01:13:38.929Z,802.13
2018-02-07T01:14:38.935Z,802.09
2018-02-07T01:15:38.936Z,802.06
2018-02-07T01:16:38.944Z,802.09
2018-02-07T01:17:38.943Z,802.08
2018-02-07T01:18:38.980Z,802.11
2018-02-07T01:19:38.954Z,802.07
2018-02-07T01:20:38.952Z,802.08
2018-02-07T01:21:38.961Z,802.06
2018-02-07T01:22:38.963Z,802.06
2018-02-07T01:23:38.968Z,802.10
2018-02-07T01:24:38.965Z,802.09
2018-02-07T01:25:38.968Z,802.08
2018-02-07T01:26:38.972Z,802.07
2018-02-07T01:27:38.986Z,802.10
2018-02-07T01:28:38.983Z,802.07
2018-02-07T01:29:38.985Z,802.12
2018-02-07T01:30:38.988Z,802.07
2018-02-07T01:31:38.993Z,802.06
2018-02-07T01:32:38.993Z,802.08
2018-02-07T01:33:38.997Z,802.08
2018-02-07T01:34:39.005Z,802.09
2018-02-07T01:35:39.004Z,802.11
2018-02-07T01:36:39.013Z,802.08
2018-02-07T01:37:39.013Z,802.07
2018-02-07T01:38:39.020Z,802.07
2018-02-07T01:39:39.017Z,802.04
2018-02-07T01:40:39.027Z,802.09
2018-02-07T01:41:39.031Z,802.07
2018-02-07T01:42:39.034Z,802.05
2018-02-07T01:43:39.032Z,802.06
2018-02-07T01:44:39.042Z,802.06
2018-02-07T01:45:39.039Z,802.02
2018-02-07T01:46:39.044Z,802.01
2018-02-07T01:47:39.046Z,801.99
2018-02-07T01:48:39.056Z,802.00
2018-02-07T01:49:39.059Z,802.03
2018-02-07T01:50:39.057Z,802.00
2018-02-07T01:51:39.062Z,802.02
2018-02-07T01:52:39.067Z,802.04
2018-02-07T01:53:39.073Z,802.01
2018-02-07T01:54:39.117Z,802.03
2018-02-07T01:55:39.077Z,801.97
2018-02-07T01:56:39.085Z,801.96
2018-02-07T01:57:39.083Z,801.99
2018-02-07T01:58:39.091Z,801.94
2018-02-07T01:59:39.089Z,802.01
2018-02-07T02:00:39.100Z,801.97
2018-02-07T02:01:39.103Z,801.98
2018-02-07T02:02:39.099Z,801.96
2018-02-07T02:03:39.104Z,801.94
2018-02-07T02:04:39.106Z,801.97
2018-02-07T02:05:39.113Z,801.94
2018-02-07T02:06:39.120Z,801.92
2018-02-07T02:07:39.123Z,801.91
2018-02-07T02:08:39.122Z,801.96
2018-02-07T02:09:39.131Z,801.91
2018-02-07T02:10:39.130Z,801.88
2018-02-07T02:11:39.138Z,801.83
2018-02-07T02:12:39.138Z,801.83
2018-02-07T02:13:39.141Z,801.85
2018-02-07T02:14:39.144Z,801.80
2018-02-07T02:15:39.155Z,801.80
2018-02-07T02:16:39.159Z,801.81
2018-02-07T02:17:39.158Z,801.83
2018-02-07T02:18:39.164Z,801.80
2018-02-07T02:19:39.161Z,801.79
2018-02-07T02:20:39.171Z,801.80
2018-02-07T02:21:39.176Z,801.80
2018-02-07T02:22:39.179Z,801.76
2018-02-07T02:23:39.182Z,801.74
2018-02-07T02:24:39.180Z,801.77
2018-02-07T02:25:39.190Z,801.77
2018-02-07T02:26:39.193Z,801.75
2018-02-07T02:27:39.195Z,801.74
2018-02-07T02:28:39.201Z,801.72
2018-02-07T02:29:39.204Z,801.78
2018-02-07T02:30:39.203Z,801.73
2018-02-07T02:31:39.212Z,801.71
2018-02-07T02:32:39.220Z,801.71
2018-02-07T02:33:39.219Z,801.69
2018-02-07T02:34:39.216Z,801.72
2018-02-07T02:35:39.226Z,801.69
2018-02-07T02:36:39.230Z,801.69
2018-02-07T02:37:39.234Z,801.68
2018-02-07T02:38:39.237Z,801.71
2018-02-07T02:39:39.235Z,801.69
2018-02-07T02:40:39.239Z,801.68
2018-02-07T02:41:39.244Z,801.70
2018-02-07T02:42:39.254Z,801.68
2018-02-07T02:43:39.249Z,801.68
2018-02-07T02:44:39.260Z,801.64
2018-02-07T02:45:39.258Z,801.68
2018-02-07T02:46:39.261Z,801.66
2018-02-07T02:47:39.269Z,801.67
2018-02-07T02:48:39.275Z,801.64
2018-02-07T02:49:39.272Z,801.65
2018-02-07T02:50:39.277Z,801.64
2018-02-07T02:51:39.282Z,801.67
2018-02-07T02:52:39.284Z,801.65
2018-02-07T02:53:39.286Z,801.65
2018-02-07T02:54:39.302Z,801.67
2018-02-07T02:55:39.298Z,801.62
2018-02-07T02:56:39.297Z,801.62
2018-02-07T02:57:39.301Z,801.61
2018-02-07T02:58:39.306Z,801.58
2018-02-07T02:59:39.314Z,801.60
2018-02-07T03:00:39.314Z,801.56
2018-02-07T03:01:39.322Z,801.56
2018-02-07T03:02:39.325Z,801.55
2018-02-07T03:03:39.328Z,801.58
2018-02-07T03:04:39.332Z,801.59
2018-02-07T03:05:39.330Z,801.58
2018-02-07T03:06:39.335Z,801.54
2018-02-07T03:07:39.344Z,801.54
2018-02-07T03:08:39.341Z,801.58
2018-02-07T03:09:39.351Z,801.59
2018-02-07T03:10:39.349Z,801.56
2018-02-07T03:11:39.358Z,801.54
2018-02-07T03:12:39.356Z,801.56
2018-02-07T03:13:39.360Z,801.56
2018-02-07T03:14:39.368Z,801.55
2018-02-07T03:15:39.374Z,801.55
2018-02-07T03:16:39.376Z,801.54
2018-02-07T03:17:39.375Z,801.54
2018-02-07T03:18:39.379Z,801.55
2018-02-07T03:19:39.382Z,801.56
2018-02-07T03:20:39.393Z,801.53
2018-02-07T03:21:39.389Z,801.54
2018-02-07T03:22:39.398Z,801.52
2018-02-07T03:23:39.402Z,801.51
2018-02-07T03:24:39.400Z,801.55
2018-02-07T03:25:39.406Z,801.52
2018-02-07T03:26:39.413Z,801.55
2018-02-07T03:27:39.411Z,801.50
2018-02-07T03:28:39.419Z,801.53
2018-02-07T03:29:39.424Z,801.52
2018-02-07T03:30:39.426Z,801.50
2018-02-07T03:31:39.425Z,801.49
2018-02-07T03:32:39.430Z,801.52
2018-02-07T03:33:39.439Z,801.51
2018-02-07T03:34:39.434Z,801.47
2018-02-07T03:35:39.440Z,801.49
2018-02-07T03:36:39.449Z,801.55
2018-02-07T03:37:39.451Z,801.54
2018-02-07T03:38:39.457Z,801.53
2018-02-07T03:39:39.453Z,801.53
2018-02-07T03:40:39.457Z,801.50
2018-02-07T03:41:39.467Z,801.56
2018-02-07T03:42:39.472Z,801.52
2018-02-07T03:43:39.469Z,801.55
2018-02-07T03:44:39.478Z,801.52
2018-02-07T03:45:39.477Z,801.51
2018-02-07T03:46:39.478Z,801.52
2018-02-07T03:47:39.484Z,801.52
2018-02-07T03:48:39.493Z,801.51
2018-02-07T03:49:39.497Z,801.52
2018-02-07T03:50:39.499Z,801.52
2018-02-07T03:51:39.503Z,801.51
2018-02-07T03:52:39.501Z,801.54
2018-02-07T03:53:39.514Z,801.52
2018-02-07T03:54:39.513Z,801.52
2018-02-07T03:55:39.519Z,801.52
2018-02-07T03:56:39.523Z,801.50
2018-02-07T03:57:39.526Z,801.53
2018-02-07T03:58:39.528Z,801.53
2018-02-07T03:59:39.532Z,801.53
2018-02-07T04:00:39.531Z,801.49
2018-02-07T04:01:39.534Z,801.50
2018-02-07T04:02:39.536Z,801.48
2018-02-07T04:03:39.544Z,801.50
2018-02-07T04:04:39.550Z,801.47
2018-02-07T04:05:39.554Z,801.51
2018-02-07T04:06:39.558Z,801.52
2018-02-07T04:07:39.555Z,801.52
2018-02-07T04:08:39.558Z,801.46
2018-02-07T04:09:39.563Z,801.48
2018-02-07T04:10:39.569Z,801.50
2018-02-07T04:11:39.568Z,801.52
2018-02-07T04:12:39.579Z,801.46
2018-02-07T04:13:39.586Z,801.52
2018-02-07T04:14:39.586Z,801.51
2018-02-07T04:15:39.584Z,801.44
2018-02-07T04:16:39.587Z,801.43
2018-02-07T04:17:39.596Z,801.47
2018-02-07T04:18:39.601Z,801.45
2018-02-07T04:19:39.603Z,801.49
2018-02-07T04:20:39.601Z,801.48
2018-02-07T04:21:39.605Z,801.43
2018-02-07T04:22:39.613Z,801.46
2018-02-07T04:23:39.612Z,801.43
2018-02-07T04:24:39.620Z,801.43
2018-02-07T04:25:39.619Z,801.43
2018-02-07T04:26:39.622Z,801.44
2018-02-07T04:27:39.626Z,801.45
2018-02-07T04:28:39.634Z,801.47
2018-02-07T04:29:39.638Z,801.44
2018-02-07T04:30:39.636Z,801.45
2018-02-07T04:31:39.640Z,801.46
2018-02-07T04:32:39.648Z,801.43
2018-02-07T04:33:39.652Z,801.44
2018-02-07T04:34:39.649Z,801.42
2018-02-07T04:35:39.652Z,801.42
2018-02-07T04:36:39.657Z,801.43
2018-02-07T04:37:39.659Z,801.42
2018-02-07T04:38:39.667Z,801.39
2018-02-07T04:39:39.673Z,801.42
2018-02-07T04:40:39.670Z,801.40
2018-02-07T04:41:39.674Z,801.38
2018-02-07T04:42:39.683Z,801.40
2018-02-07T04:43:39.687Z,801.41
2018-02-07T04:44:39.689Z,801.39
2018-02-07T04:45:39.692Z,801.41
2018-02-07T04:46:39.699Z,801.44
2018-02-07T04:47:39.699Z,801.43
2018-02-07T04:48:39.705Z,801.43
2018-02-07T04:49:39.703Z,801.47
2018-02-07T04:50:39.711Z,801.44
2018-02-07T04:51:39.712Z,801.42
2018-02-07T04:52:39.719Z,801.44
2018-02-07T04:53:39.720Z,801.43
2018-02-07T04:54:39.724Z,801.44
2018-02-07T04:55:39.725Z,801.46
2018-02-07T04:56:39.724Z,801.45
2018-02-07T04:57:39.732Z,801.45
2018-02-07T04:58:39.736Z,801.39
2018-02-07T04:59:39.735Z,801.44
2018-02-07T05:00:39.744Z,801.39
2018-02-07T05:01:39.745Z,801.39
2018-02-07T05:02:39.753Z,801.36
2018-02-07T05:03:39.752Z,801.35
2018-02-07T05:04:39.758Z,801.37
2018-02-07T05:05:39.757Z,801.32
2018-02-07T05:06:39.755Z,801.38
2018-02-07T05:07:39.759Z,801.30
2018-02-07T05:08:39.768Z,801.34
2018-02-07T05:09:39.771Z,801.29
2018-02-07T05:10:39.768Z,801.33
2018-02-07T05:11:39.771Z,801.30
2018-02-07T05:12:39.779Z,801.29
2018-02-07T05:13:39.783Z,801.30
2018-02-07T05:14:39.778Z,801.29
2018-02-07T05:15:39.788Z,801.29
2018-02-07T05:16:39.792Z,801.30
2018-02-07T05:17:39.790Z,801.31
2018-02-07T05:18:39.796Z,801.30
2018-02-07T05:19:39.799Z,801.29
2018-02-07T05:20:39.803Z,801.25
2018-02-07T05:21:39.801Z,801.26
2018-02-07T05:22:39.804Z,801.29
2018-02-07T05:23:39.805Z,801.27
2018-02-07T05:24:39.814Z,801.29
2018-02-07T05:25:39.818Z,801.30
2018-02-07T05:26:39.819Z,801.27
2018-02-07T05:27:39.822Z,801.28
2018-02-07T05:28:39.827Z,801.31
2018-02-07T05:29:39.828Z,801.31
2018-02-07T05:30:39.826Z,801.34
2018-02-07T05:31:39.835Z,801.29
2018-02-07T05:32:39.839Z,801.33
2018-02-07T05:33:39.834Z,801.36
2018-02-07T05:34:39.839Z,801.37
2018-02-07T05:35:39.847Z,801.38
2018-02-07T05:36:39.851Z,801.35
2018-02-07T05:37:39.847Z,801.38
2018-02-07T05:38:39.857Z,801.41
2018-02-07T05:39:39.858Z,801.38
2018-02-07T05:40:39.856Z,801.39
2018-02-07T05:41:39.864Z,801.42
2018-02-07T05:42:39.859Z,801.39
2018-02-07T05:43:39.868Z,801.37
2018-02-07T05:44:39.867Z,801.39
2018-02-07T05:45:39.876Z,801.41
2018-02-07T05:46:39.872Z,801.40
2018-02-07T05:47:39.879Z,801.41
2018-02-07T05:48:39.878Z,801.44
2018-02-07T05:49:39.888Z,801.44
2018-02-07T05:50:39.885Z,801.42
2018-02-07T05:51:39.898Z,801.45
2018-02-07T05:52:39.890Z,801.46
2018-02-07T05:53:39.893Z,801.45
2018-02-07T05:54:39.901Z,801.45
2018-02-07T05:55:39.898Z,801.40
2018-02-07T05:56:39.905Z,801.44
2018-02-07T05:57:39.908Z,801.42
2018-02-07T05:58:39.914Z,801.44
2018-02-07T05:59:39.909Z,801.39
2018-02-07T06:00:39.917Z,801.42
2018-02-07T06:01:39.923Z,801.40
2018-02-07T06:02:39.922Z,801.41
2018-02-07T06:03:39.919Z,801.37
2018-02-07T06:04:39.928Z,801.36
2018-02-07T06:05:39.931Z,801.38
2018-02-07T06:06:39.927Z,801.39
2018-02-07T06:07:39.934Z,801.42
2018-02-07T06:08:39.937Z,801.41
2018-02-07T06:09:39.935Z,801.44
2018-02-07T06:10:39.942Z,801.42
2018-02-07T06:11:39.939Z,801.39
2018-02-07T06:12:39.949Z,801.43
2018-02-07T06:13:39.946Z,801.43
2018-02-07T06:14:39.952Z,801.43
2018-02-07T06:15:39.951Z,801.45
2018-02-07T06:16:39.954Z,801.46
2018-02-07T06:17:39.966Z,801.42
2018-02-07T06:18:39.957Z,801.47
2018-02-07T06:19:39.967Z,801.42
2018-02-07T06:20:39.970Z,801.47
2018-02-07T06:21:39.973Z,801.43
2018-02-07T06:22:39.976Z,801.48
2018-02-07T06:23:39.972Z,801.49
2018-02-07T06:24:39.975Z,801.47
2018-02-07T06:25:39.985Z,801.47
2018-02-07T06:26:39.985Z,801.50
2018-02-07T06:27:39.991Z,801.51
2018-02-07T06:28:39.991Z,801.49
2018-02-07T06:29:39.988Z,801.46
2018-02-07T06:30:39.991Z,801.49
2018-02-07T06:31:39.993Z,801.48
2018-02-07T06:32:40.003Z,801.48
2018-02-07T06:33:40.007Z,801.49
2018-02-07T06:34:40.006Z,801.50
2018-02-07T06:35:40.005Z,801.49
2018-02-07T06:36:40.016Z,801.50
2018-02-07T06:37:40.011Z,801.55
2018-02-07T06:38:40.013Z,801.54
2018-02-07T06:39:40.015Z,801.52
2018-02-07T06:40:40.024Z,801.52
2018-02-07T06:41:40.025Z,801.58
2018-02-07T06:42:40.029Z,801.59
2018-02-07T06:43:40.035Z,801.59
2018-02-07T06:44:40.029Z,801.59
2018-02-07T06:45:40.032Z,801.60
2018-02-07T06:46:40.054Z,801.62
2018-02-07T06:47:40.038Z,801.63
2018-02-07T06:48:40.043Z,801.62
2018-02-07T06:49:40.048Z,801.61
2018-02-07T06:50:40.049Z,801.62
2018-02-07T06:51:40.064Z,801.65
2018-02-07T06:52:40.058Z,801.65
2018-02-07T06:53:40.054Z,801.67
2018-02-07T06:54:40.056Z,801.68
2018-02-07T06:55:40.064Z,801.71
2018-02-07T06:56:40.076Z,801.71
2018-02-07T06:57:40.069Z,801.69
2018-02-07T06:58:40.066Z,801.71
2018-02-07T06:59:40.067Z,801.71
2018-02-07T07:00:40.076Z,801.71
2018-02-07T07:01:40.073Z,801.74
2018-02-07T07:02:40.080Z,801.73
2018-02-07T07:03:40.080Z,801.74
2018-02-07T07:04:40.092Z,801.71
2018-02-07T07:05:40.088Z,801.71
2018-02-07T07:06:40.088Z,801.73
2018-02-07T07:07:40.088Z,801.71
2018-02-07T07:08:40.096Z,801.73
2018-02-07T07:09:40.093Z,801.70
2018-02-07T07:10:40.100Z,801.74
2018-02-07T07:11:40.101Z,801.75
2018-02-07T07:12:40.105Z,801.74
2018-02-07T07:13:40.109Z,801.74
2018-02-07T07:14:40.111Z,801.73
2018-02-07T07:15:40.114Z,801.74
2018-02-07T07:16:40.116Z,801.73
2018-02-07T07:17:40.120Z,801.79
2018-02-07T07:18:40.116Z,801.77
2018-02-07T07:19:40.124Z,801.76
2018-02-07T07:20:40.123Z,801.77
2018-02-07T07:21:40.125Z,801.77
2018-02-07T07:22:40.135Z,801.79
2018-02-07T07:23:40.131Z,801.78
2018-02-07T07:24:40.139Z,801.80
2018-02-07T07:25:40.142Z,801.75
2018-02-07T07:26:40.142Z,801.79
2018-02-07T07:27:40.145Z,801.78
2018-02-07T07:28:40.151Z,801.76
2018-02-07T07:29:40.145Z,801.76
2018-02-07T07:30:40.147Z,801.76
2018-02-07T07:31:40.152Z,801.77
2018-02-07T07:32:40.152Z,801.75
2018-02-07T07:33:40.156Z,801.76
2018-02-07T07:34:40.165Z,801.76
2018-02-07T07:35:40.167Z,801.76
2018-02-07T07:36:40.175Z,801.78
2018-02-07T07:37:40.167Z,801.73
2018-02-07T07:38:40.169Z,801.77
2018-02-07T07:39:40.176Z,801.75
2018-02-07T07:40:40.180Z,801.73
2018-02-07T07:41:40.176Z,801.71
2018-02-07T07:42:40.179Z,801.73
2018-02-07T07:43:40.184Z,801.69
2018-02-07T07:44:40.191Z,801.68
2018-02-07T07:45:40.188Z,801.73
2018-02-07T07:46:40.202Z,801.76
2018-02-07T07:47:40.198Z,801.71
2018-02-07T07:48:40.202Z,801.77
2018-02-07T07:49:40.200Z,801.76
2018-02-07T07:50:40.204Z,801.77
2018-02-07T07:51:40.208Z,801.79
2018-02-07T07:52:40.216Z,801.79
2018-02-07T07:53:40.209Z,801.79
2018-02-07T07:54:40.211Z,801.76
2018-02-07T07:55:40.217Z,801.77
2018-02-07T07:56:40.222Z,801.80
2018-02-07T07:57:40.221Z,801.80
2018-02-07T07:58:40.233Z,801.79
2018-02-07T07:59:40.230Z,801.80
2018-02-07T08:00:40.232Z,801.78
2018-02-07T08:01:40.236Z,801.79
2018-02-07T08:02:40.237Z,801.85
2018-02-07T08:03:40.239Z,801.88
2018-02-07T08:04:40.245Z,801.87
2018-02-07T08:05:40.240Z,801.88
2018-02-07T08:06:40.241Z,801.90
2018-02-07T08:07:40.246Z,801.84
2018-02-07T08:08:40.247Z,801.87
2018-02-07T08:09:40.252Z,801.88
2018-02-07T08:10:40.253Z,801.89
2018-02-07T08:11:40.262Z,801.92
2018-02-07T08:12:40.260Z,801.92
2018-02-07T08:13:40.262Z,801.90
2018-02-07T08:14:40.270Z,801.91
2018-02-07T08:15:40.270Z,801.90
2018-02-07T08:16:40.270Z,801.92
2018-02-07T08:17:40.279Z,801.91
2018-02-07T08:18:40.281Z,801.85
2018-02-07T08:19:40.277Z,801.89
2018-02-07T08:20:40.287Z,801.88
2018-02-07T08:21:40.285Z,801.85
2018-02-07T08:22:40.292Z,801.95
2018-02-07T08:23:40.295Z,801.91
2018-02-07T08:24:40.293Z,801.92
2018-02-07T08:25:40.295Z,801.94
2018-02-07T08:26:40.303Z,801.96
2018-02-07T08:27:40.301Z,801.96
2018-02-07T08:28:40.310Z,801.98
2018-02-07T08:29:40.307Z,801.97
2018-02-07T08:30:40.316Z,801.97
2018-02-07T08:31:40.313Z,801.93
2018-02-07T08:32:40.317Z,801.97
2018-02-07T08:33:40.318Z,801.96
2018-02-07T08:34:40.330Z,802.00
2018-02-07T08:35:40.325Z,802.00
2018-02-07T08:36:40.334Z,802.05
2018-02-07T08:37:40.332Z,802.05
2018-02-07T08:38:40.333Z,802.04
2018-02-07T08:39:40.342Z,802.00
2018-02-07T08:40:40.341Z,802.07
2018-02-07T08:41:40.346Z,802.06
2018-02-07T08:42:40.346Z,802.03
2018-02-07T08:43:40.351Z,802.05
2018-02-07T08:44:40.358Z,802.05
2018-02-07T08:45:40.355Z,802.06
2018-02-07T08:46:40.357Z,802.08
2018-02-07T08:47:40.362Z,802.08
2018-02-07T08:48:40.364Z,802.08
2018-02-07T08:49:40.366Z,802.15
2018-02-07T08:50:40.373Z,802.10
2018-02-07T08:51:40.381Z,802.13
2018-02-07T08:52:40.382Z,802.12
2018-02-07T08:53:40.386Z,802.12
2018-02-07T08:54:40.407Z,802.15
2018-02-07T08:55:40.383Z,802.17
2018-02-07T08:56:40.391Z,802.15
2018-02-07T08:57:40.389Z,802.21
2018-02-07T08:58:40.398Z,802.17
2018-02-07T08:59:40.396Z,802.21
2018-02-07T09:00:40.398Z,802.19
2018-02-07T09:01:40.409Z,802.18
2018-02-07T09:02:40.408Z,802.24
2018-02-07T09:03:40.407Z,802.23
2018-02-07T09:04:40.415Z,802.21
2018-02-07T09:05:40.416Z,802.19
2018-02-07T09:06:40.414Z,802.21
2018-02-07T09:07:40.424Z,802.25
2018-02-07T09:08:40.423Z,802.24
2018-02-07T09:09:40.429Z,802.27
2018-02-07T09:10:40.425Z,802.19
2018-02-07T09:11:40.428Z,802.24
2018-02-07T09:12:40.433Z,802.28
2018-02-07T09:13:40.434Z,802.28
2018-02-07T09:14:40.437Z,802.29
2018-02-07T09:15:40.445Z,802.30
2018-02-07T09:16:40.445Z,802.31
2018-02-07T09:17:40.449Z,802.29
2018-02-07T09:18:40.450Z,802.30
2018-02-07T09:19:40.452Z,802.32
2018-02-07T09:20:40.457Z,802.32
2018-02-07T09:21:40.464Z,802.33
2018-02-07T09:22:40.483Z,802.37
2018-02-07T09:23:40.466Z,802.36
2018-02-07T09:24:40.503Z,802.37
2018-02-07T09:25:40.473Z,802.40
2018-02-07T09:26:40.482Z,802.38
2018-02-07T09:27:40.486Z,802.39
2018-02-07T09:28:40.484Z,802.42
2018-02-07T09:29:40.486Z,802.44
2018-02-07T09:30:40.495Z,802.43
2018-02-07T09:31:40.497Z,802.46
2018-02-07T09:32:40.506Z,802.43
2018-02-07T09:33:40.504Z,802.48
2018-02-07T09:34:40.509Z,802.45
2018-02-07T09:35:40.530Z,802.44
2018-02-07T09:36:40.519Z,802.44
2018-02-07T09:37:40.515Z,802.43
2018-02-07T09:38:40.524Z,802.47
2018-02-07T09:39:40.524Z,802.51
2018-02-07T09:40:40.533Z,802.49
2018-02-07T09:41:40.537Z,802.52
2018-02-07T09:42:40.532Z,802.52
2018-02-07T09:43:40.541Z,802.49
2018-02-07T09:44:40.540Z,802.53
2018-02-07T09:45:40.551Z,802.50
2018-02-07T09:46:40.553Z,802.54
2018-02-07T09:47:40.558Z,802.51
2018-02-07T09:48:40.557Z,802.50
2018-02-07T09:49:40.566Z,802.51
2018-02-07T09:50:40.569Z,802.48
2018-02-07T09:51:40.586Z,802.55
2018-02-07T09:52:40.582Z,802.54
2018-02-07T09:53:40.580Z,802.50
2018-02-07T09:54:40.583Z,802.46
2018-02-07T09:55:40.582Z,802.49
2018-02-07T09:56:40.592Z,802.48
2018-02-07T09:57:40.596Z,802.48
2018-02-07T09:58:40.593Z,802.49
2018-02-07T09:59:40.603Z,802.47
2018-02-07T10:00:40.602Z,802.47
2018-02-07T10:01:40.615Z,802.50
2018-02-07T10:02:40.615Z,802.50
2018-02-07T10:03:40.619Z,802.49
2018-02-07T10:04:40.618Z,802.50
2018-02-07T10:05:40.623Z,802.50
2018-02-07T10:06:40.625Z,802.50
2018-02-07T10:07:40.628Z,802.51
2018-02-07T10:08:40.652Z,802.53
2018-02-07T10:09:40.645Z,802.52
2018-02-07T10:10:40.646Z,802.56
2018-02-07T10:11:40.644Z,802.59
2018-02-07T10:12:40.670Z,802.57
2018-02-07T10:13:40.692Z,802.59
2018-02-07T10:14:40.654Z,802.56
2018-02-07T10:15:40.664Z,802.58
2018-02-07T10:16:40.665Z,802.61
2018-02-07T10:17:40.667Z,802.60
2018-02-07T10:18:40.678Z,802.60
2018-02-07T10:19:40.677Z,802.57
2018-02-07T10:20:40.681Z,802.56
2018-02-07T10:21:40.688Z,802.62
2018-02-07T10:22:40.735Z,802.59
2018-02-07T10:23:40.693Z,802.60
2018-02-07T10:24:40.702Z,802.64
2018-02-07T10:25:40.705Z,802.60
2018-02-07T10:26:40.706Z,802.58
2018-02-07T10:27:40.717Z,802.60
2018-02-07T10:28:40.710Z,802.60
2018-02-07T10:29:40.723Z,802.60
2018-02-07T10:30:40.722Z,802.63
2018-02-07T10:31:40.730Z,802.62
2018-02-07T10:32:40.731Z,802.63
2018-02-07T10:33:40.731Z,802.65
2018-02-07T10:34:40.736Z,802.62
2018-02-07T10:35:40.736Z,802.65
2018-02-07T10:36:40.740Z,802.66
2018-02-07T10:37:40.750Z,802.69
2018-02-07T10:38:40.751Z,802.68
2018-02-07T10:39:40.749Z,802.67
2018-02-07T10:40:40.755Z,802.69
2018-02-07T10:41:40.763Z,802.67
2018-02-07T10:42:40.767Z,802.64
2018-02-07T10:43:40.772Z,802.69
2018-02-07T10:44:40.774Z,802.68
2018-02-07T10:45:40.779Z,802.72
2018-02-07T10:46:40.784Z,802.70
2018-02-07T10:47:40.786Z,802.68
2018-02-07T10:48:40.784Z,802.65
2018-02-07T10:49:40.792Z,802.67
2018-02-07T10:50:40.798Z,802.65
2018-02-07T10:51:40.803Z,802.70
2018-02-07T10:52:40.811Z,802.71
2018-02-07T10:53:40.811Z,802.70
2018-02-07T10:54:40.815Z,802.71
2018-02-07T10:55:40.813Z,802.73
2018-02-07T10:56:40.818Z,802.70
2018-02-07T10:57:40.823Z,802.72
2018-02-07T10:58:40.824Z,802.70
2018-02-07T10:59:40.828Z,802.69
2018-02-07T11:00:40.833Z,802.70
2018-02-07T11:01:40.842Z,802.66
2018-02-07T11:02:40.846Z,802.67
2018-02-07T11:03:40.844Z,802.66
2018-02-07T11:04:40.848Z,802.71
2018-02-07T11:05:40.861Z,802.72
2018-02-07T11:06:40.856Z,802.75
2018-02-07T11:07:40.864Z,802.73
2018-02-07T11:08:40.868Z,802.74
2018-02-07T11:09:40.869Z,802.73
2018-02-07T11:10:40.872Z,802.77
2018-02-07T11:11:40.879Z,802.76
2018-02-07T11:12:40.886Z,802.74
2018-02-07T11:13:40.886Z,802.70
2018-02-07T11:14:40.887Z,802.72
2018-02-07T11:15:40.898Z,802.73
2018-02-07T11:16:40.901Z,802.75
2018-02-07T11:17:40.900Z,802.76
2018-02-07T11:18:40.906Z,802.79
2018-02-07T11:19:40.916Z,802.76
2018-02-07T11:20:40.918Z,802.77
2018-02-07T11:21:40.921Z,802.77
2018-02-07T11:22:40.929Z,802.75
2018-02-07T11:23:40.931Z,802.79
2018-02-07T11:24:40.932Z,802.82
2018-02-07T11:25:40.936Z,802.81
2018-02-07T11:26:40.940Z,802.80
2018-02-07T11:27:40.948Z,802.80
2018-02-07T11:28:40.949Z,802.82
2018-02-07T11:29:40.956Z,802.82
2018-02-07T11:30:40.963Z,802.78
2018-02-07T11:31:40.963Z,802.82
2018-02-07T11:32:40.972Z,802.80
2018-02-07T11:33:40.977Z,802.79
2018-02-07T11:34:40.975Z,802.77
2018-02-07T11:35:40.987Z,802.78
2018-02-07T11:36:40.991Z,802.81
2018-02-07T11:37:41.004Z,802.80
2018-02-07T11:38:41.004Z,802.78
2018-02-07T11:39:41.005Z,802.80
2018-02-07T11:40:41.012Z,802.74
2018-02-07T11:41:41.014Z,802.82
2018-02-07T11:42:41.020Z,802.82
2018-02-07T11:43:41.018Z,802.83
2018-02-07T11:44:41.028Z,802.83
2018-02-07T11:45:41.031Z,802.79
2018-02-07T11:46:41.031Z,802.83
2018-02-07T11:47:41.037Z,802.83
2018-02-07T11:48:41.047Z,802.80
2018-02-07T11:49:41.047Z,802.83
2018-02-07T11:50:41.060Z,802.79
2018-02-07T11:51:41.061Z,802.79
2018-02-07T11:52:41.062Z,802.82
2018-02-07T11:53:41.066Z,802.81
2018-02-07T11:54:41.072Z,802.76
2018-02-07T11:55:41.076Z,802.77
2018-02-07T11:56:41.080Z,802.75
2018-02-07T11:57:41.087Z,802.74
2018-02-07T11:58:41.094Z,802.71
2018-02-07T11:59:41.100Z,802.72
2018-02-07T12:00:41.103Z,802.75
2018-02-07T12:01:41.106Z,802.72
2018-02-07T12:02:41.119Z,802.76
2018-02-07T12:03:41.114Z,802.73
2018-02-07T12:04:41.149Z,802.71
2018-02-07T12:05:41.125Z,802.77
2018-02-07T12:06:41.134Z,802.75
2018-02-07T12:07:41.134Z,802.71
2018-02-07T12:08:41.146Z,802.73
2018-02-07T12:09:41.150Z,802.76
2018-02-07T12:10:41.149Z,802.73
2018-02-07T12:11:41.155Z,802.71
2018-02-07T12:12:41.161Z,802.72
2018-02-07T12:13:41.165Z,802.70
2018-02-07T12:14:41.168Z,802.70
2018-02-07T12:15:41.181Z,802.70
2018-02-07T12:16:41.183Z,802.71
2018-02-07T12:17:41.189Z,802.69
2018-02-07T12:18:41.190Z,802.68
2018-02-07T12:19:41.197Z,802.73
2018-02-07T12:20:41.204Z,802.69
2018-02-07T12:21:41.203Z,802.71
2018-02-07T12:22:41.206Z,802.69
2018-02-07T12:23:41.212Z,802.71
2018-02-07T12:24:41.220Z,802.68
2018-02-07T12:25:41.227Z,802.72
2018-02-07T12:26:41.233Z,802.66
2018-02-07T12:27:41.234Z,802.67
2018-02-07T12:28:41.233Z,802.64